Startpagina
METAR-TAF:

METAR-TAF

Vliegvelden :

Wolgograd, Rusland

breedte: 48-47N, lengte: 044-22E, hoogte: 145 m

Actueel weer

Dit bericht is 41 minuten geleden gemaakt, om 13:00 UTC
Wind 12 kt uit het noordwesten, variërend tussen het westnoordwesten en het noorden
Temperatuur 26°C
Vochtigheid 24%
Druk 1017 hPa
Zicht 10 km of meer
geen wolken onder 1500 m en geen cumulonimbus

METAR: URWW 261300Z 32006MPS 300V010 CAVOK 26/04 Q1017 R24/010070 TEMPO -TSRAGR SCT020CB

Tijdstip: 16:41 (13:41 UTC)

Verwachting

Dit bericht is 2 uur en het 43 minuten geleden gemaakt, om 10:58 UTC
Verwachting geldig van 26 om 12 UTC tot 26 om 21 UTC
Wind 10 kt uit het noordwesten met uitschieters tot 19 kt
Zicht 10 km of meer
Gebroken wolken op 1100 ft
Verspreide wolken op 2000 ft, Cumulonimbus.
Tijdelijke
van 26 om 12 UTC tot 26 om 21 UTC
Wind 17 kt uit het noorden met uitschieters tot 29 kt
Zicht: 3100 m
onweer, lichte regen, hagel

TAF: URWW 261058Z 2612/2621 32005G10MPS 9999 BKN011 SCT020CB TEMPO 2612/2621 35009G15MPS 3100 -TSRAGR

Waarnemingen en weersverwachtingen van meer dan 4000 vliegvelden (METAR en TAF).

De beschikbare stations zijn de gele en rode punten op de kaart.

Ga met uw muis naar het station om de naam te zien.

Klik dan om waarnemingen en weersverwachtingen te zien.

kaart wijzigen: klik op de groene knoppen met een zwart kruis om in te zoomen, op de groene knop met een streepje om uit te zoomen of op de groene pijlen voor aangrenzende kaarten.


METAR-TAF: